Time;durP1;ratioP1;P1;durP2;ratioP2;P2;SDS_P1;SDS_P2;PMS_P1;PMS_P2;Temp;Humidity;BMP_temperature;BMP_pressure;BME280_temperature;BME280_humidity;BME280_pressure;Samples;Min_cycle;Max_cycle;Signal;HPM_P1;HPM_P2
2023/10/07 00:00:38;;;;;;;10.45;2.67;;;;;;;15.63;100.00;101093.69;4908560;29;20315;-41
2023/10/07 00:03:06;;;;;;;19.05;2.50;;;;;;;15.63;100.00;101093.69;4907364;29;20224;-41
2023/10/07 00:05:35;;;;;;;12.40;3.10;;;;;;;15.59;100.00;101087.59;4907172;29;20228;-42
2023/10/07 00:08:08;;;;;;;12.25;2.40;;;;;;;15.61;100.00;101092.91;4908762;29;20196;-42
2023/10/07 00:10:37;;;;;;;13.18;2.45;;;;;;;15.52;100.00;101104.22;4905728;29;20266;-42
2023/10/07 00:13:08;;;;;;;14.43;3.70;;;;;;;15.53;100.00;101092.47;4903171;29;20212;-42
2023/10/07 00:15:36;;;;;;;15.73;3.30;;;;;;;15.53;100.00;101103.28;4908585;29;20227;-42
2023/10/07 00:20:40;;;;;;;12.95;2.58;;;;;;;15.37;100.00;101093.31;4904429;29;20198;-43
2023/10/07 00:23:09;;;;;;;21.70;3.17;;;;;;;15.44;100.00;101080.34;4910992;29;20363;-42
2023/10/07 00:25:38;;;;;;;17.33;3.55;;;;;;;15.32;100.00;101086.41;4906593;29;20188;-42
2023/10/07 00:28:17;;;;;;;16.02;2.53;;;;;;;15.33;100.00;101063.88;4908525;29;20192;-43
2023/10/07 00:30:43;;;;;;;19.05;3.38;;;;;;;15.26;100.00;101066.00;4905873;29;20299;-42
2023/10/07 00:33:09;;;;;;;17.15;2.67;;;;;;;15.20;100.00;101069.06;4908891;29;20319;-41
2023/10/07 00:35:36;;;;;;;18.95;3.65;;;;;;;15.28;100.00;101076.72;4907829;29;20223;-42
2023/10/07 00:38:02;;;;;;;16.27;2.40;;;;;;;15.29;100.00;101055.06;4907932;29;20190;-42
2023/10/07 00:42:56;;;;;;;21.35;2.97;;;;;;;15.17;100.00;101064.66;4909181;29;20294;-42
2023/10/07 00:45:24;;;;;;;12.43;2.95;;;;;;;15.16;100.00;101070.16;4908253;29;20222;-42
2023/10/07 00:47:52;;;;;;;17.90;2.90;;;;;;;15.19;100.00;101078.09;4902206;29;20192;-41
2023/10/07 00:50:20;;;;;;;14.32;3.00;;;;;;;15.12;100.00;101074.84;4911830;29;20258;-42
2023/10/07 00:55:30;;;;;;;15.00;2.38;;;;;;;15.07;100.00;101076.94;4909821;29;20208;-41
2023/10/07 01:00:46;;;;;;;23.75;3.30;;;;;;;15.06;100.00;101083.25;4906527;29;20287;-43
2023/10/07 01:08:34;;;;;;;17.08;2.67;;;;;;;14.98;100.00;101094.47;4908427;29;20208;-42
2023/10/07 01:13:48;;;;;;;19.23;3.10;;;;;;;14.90;100.00;101068.84;4905969;29;20278;-43
2023/10/07 01:16:19;;;;;;;17.17;2.78;;;;;;;14.92;100.00;101064.25;4889546;29;20199;-41
2023/10/07 01:18:45;;;;;;;17.88;3.42;;;;;;;14.83;100.00;101055.69;4902690;29;20199;-41
2023/10/07 01:21:20;;;;;;;18.20;3.15;;;;;;;14.85;100.00;101063.69;4909690;29;20198;-41
2023/10/07 01:23:46;;;;;;;17.60;2.67;;;;;;;14.83;100.00;101060.22;4905928;29;20247;-42
2023/10/07 01:26:16;;;;;;;14.07;2.45;;;;;;;14.77;100.00;101058.69;4900798;29;20248;-42
2023/10/07 01:28:43;;;;;;;16.92;2.72;;;;;;;14.74;100.00;101058.88;4905926;29;20251;-42
2023/10/07 01:31:18;;;;;;;16.63;2.88;;;;;;;14.73;100.00;101051.72;4893387;29;20318;-41
2023/10/07 01:33:47;;;;;;;18.75;2.58;;;;;;;14.74;100.00;101055.31;4910106;29;20304;-41
2023/10/07 01:36:18;;;;;;;19.08;3.90;;;;;;;14.64;100.00;101054.88;4906980;29;20207;-43
2023/10/07 01:38:47;;;;;;;24.85;4.25;;;;;;;14.60;100.00;101062.25;4903423;29;20528;-42
2023/10/07 01:41:18;;;;;;;23.48;3.38;;;;;;;14.60;100.00;101056.00;4889678;29;20193;-42
2023/10/07 01:43:56;;;;;;;23.00;3.20;;;;;;;14.57;100.00;101058.84;4907882;29;20196;-41
2023/10/07 01:46:27;;;;;;;20.80;3.53;;;;;;;14.60;100.00;101072.16;4905182;29;20188;-41
2023/10/07 01:49:01;;;;;;;18.38;3.40;;;;;;;14.62;100.00;101072.97;4889481;29;20177;-42
2023/10/07 01:51:30;;;;;;;23.70;2.80;;;;;;;14.61;100.00;101079.34;4906221;29;20198;-42
2023/10/07 01:54:08;;;;;;;22.30;3.75;;;;;;;14.54;100.00;101070.66;4891665;29;20218;-42
2023/10/07 01:56:34;;;;;;;16.40;3.17;;;;;;;14.52;100.00;101068.94;4907059;29;20627;-42
2023/10/07 02:01:42;;;;;;;16.55;2.45;;;;;;;14.42;100.00;101073.94;4903098;29;20185;-42
2023/10/07 02:04:18;;;;;;;20.02;3.05;;;;;;;14.40;100.00;101065.94;4891702;29;20666;-42
2023/10/07 02:06:54;;;;;;;15.43;3.05;;;;;;;14.40;100.00;101084.81;4888949;29;20175;-44
2023/10/07 02:09:27;;;;;;;25.65;3.53;;;;;;;14.43;100.00;101076.59;4901916;23;20942;-42
2023/10/07 02:11:54;;;;;;;23.70;3.38;;;;;;;14.42;100.00;101072.13;4933104;29;20529;-44
2023/10/07 02:14:24;;;;;;;20.45;3.20;;;;;;;14.39;100.00;101079.50;4920612;29;20226;-41
2023/10/07 02:16:53;;;;;;;18.08;3.50;;;;;;;14.38;100.00;101075.06;4922083;29;20592;-43
2023/10/07 02:19:29;;;;;;;22.35;3.28;;;;;;;14.31;100.00;101071.78;4920070;29;20670;-42
2023/10/07 02:22:23;;;;;;;20.60;3.33;;;;;;;14.34;100.00;101071.66;4920391;29;20210;-43
2023/10/07 02:25:02;;;;;;;27.58;4.30;;;;;;;14.29;100.00;101079.09;4916700;29;20187;-43
2023/10/07 02:27:34;;;;;;;20.42;4.57;;;;;;;14.30;100.00;101077.25;4916498;29;20279;-43
2023/10/07 02:29:59;;;;;;;17.88;3.55;;;;;;;14.22;100.00;101073.13;4937322;29;20327;-43
2023/10/07 02:32:25;;;;;;;22.92;3.78;;;;;;;14.28;100.00;101079.16;4917779;29;20259;-42
2023/10/07 02:34:54;;;;;;;15.07;2.40;;;;;;;14.22;100.00;101083.91;4918541;29;20259;-43
2023/10/07 02:37:22;;;;;;;20.95;4.60;;;;;;;14.18;100.00;101089.53;4921860;29;20184;-43
2023/10/07 02:39:48;;;;;;;26.38;2.85;;;;;;;14.14;100.00;101102.25;4920557;29;20847;-43
2023/10/07 02:42:31;;;;;;;23.52;4.03;;;;;;;14.20;100.00;101091.19;4914893;29;20247;-43
2023/10/07 02:45:20;;;;;;;26.08;4.28;;;;;;;14.09;100.00;101085.47;4920568;29;20539;-41
2023/10/07 02:47:53;;;;;;;23.17;3.47;;;;;;;14.06;100.00;101074.84;4921924;29;20179;-42
2023/10/07 02:50:19;;;;;;;16.90;2.60;;;;;;;14.06;100.00;101082.03;4917805;29;20584;-41
2023/10/07 02:52:47;;;;;;;19.48;3.28;;;;;;;14.01;100.00;101091.22;4915969;29;20343;-43
2023/10/07 02:57:57;;;;;;;24.20;4.05;;;;;;;13.96;100.00;101084.31;4917286;29;20219;-41
2023/10/07 03:00:35;;;;;;;21.85;3.28;;;;;;;13.96;100.00;101085.19;4921065;29;20193;-42
2023/10/07 03:05:45;;;;;;;28.35;3.67;;;;;;;14.01;100.00;101088.53;4917819;29;20176;-41
2023/10/07 03:08:21;;;;;;;23.83;3.53;;;;;;;13.99;100.00;101084.16;4921824;29;20258;-43
2023/10/07 03:11:11;;;;;;;22.75;4.10;;;;;;;14.05;100.00;101091.94;4921633;29;20303;-44
2023/10/07 03:13:38;;;;;;;23.27;3.78;;;;;;;13.96;100.00;101095.09;4918550;29;20208;-42
2023/10/07 03:16:59;;;;;;;27.17;3.90;;;;;;;13.96;100.00;101097.78;4917803;29;20279;-42
2023/10/07 03:24:10;;;;;;;15.85;3.08;;;;;;;13.87;100.00;101117.09;4924452;29;20713;-43
2023/10/07 03:26:41;;;;;;;22.70;4.05;;;;;;;13.91;100.00;101110.59;4919833;29;20179;-42
2023/10/07 03:29:07;;;;;;;21.60;3.60;;;;;;;13.90;100.00;101104.31;4922231;29;20187;-41
2023/10/07 03:31:47;;;;;;;29.17;5.20;;;;;;;13.87;100.00;101117.94;4920102;29;20694;-42
2023/10/07 03:34:13;;;;;;;22.42;3.25;;;;;;;13.88;100.00;101116.97;4917798;29;20258;-42
2023/10/07 03:37:14;;;;;;;26.95;3.08;;;;;;;13.87;100.00;101128.72;4923388;29;20187;-43
2023/10/07 03:42:15;;;;;;;21.77;3.58;;;;;;;13.90;100.00;101123.16;4921910;29;20256;-42
2023/10/07 03:44:40;;;;;;;21.88;3.53;;;;;;;13.88;100.00;101126.88;4921130;29;20176;-43
2023/10/07 03:47:10;;;;;;;17.48;2.97;;;;;;;13.84;100.00;101133.38;4919608;29;20180;-43
2023/10/07 03:49:39;;;;;;;21.30;3.67;;;;;;;13.90;100.00;101123.16;4921283;29;20282;-43
2023/10/07 03:52:12;;;;;;;23.10;4.68;;;;;;;13.86;100.00;101128.78;4918832;29;20239;-42
2023/10/07 03:54:42;;;;;;;15.73;2.67;;;;;;;13.85;100.00;101122.53;4920173;29;20262;-41
2023/10/07 03:57:09;;;;;;;24.17;3.42;;;;;;;13.89;100.00;101137.59;4919750;29;20172;-42
2023/10/07 03:59:36;;;;;;;25.48;2.83;;;;;;;13.80;100.00;101149.69;4917647;29;20180;-44
2023/10/07 04:02:12;;;;;;;24.77;3.75;;;;;;;13.89;100.00;101139.44;4920993;29;20183;-42
2023/10/07 04:04:41;;;;;;;25.23;4.10;;;;;;;13.87;100.00;101149.41;4914525;29;20182;-44
2023/10/07 04:07:08;;;;;;;21.17;2.78;;;;;;;13.85;100.00;101162.06;4919690;29;20243;-43
2023/10/07 04:09:35;;;;;;;20.15;3.00;;;;;;;13.80;100.00;101148.81;4918225;29;20207;-45
2023/10/07 04:12:01;;;;;;;16.00;3.38;;;;;;;13.80;100.00;101159.59;4916909;29;20226;-44
2023/10/07 04:14:29;;;;;;;17.75;3.40;;;;;;;13.76;100.00;101160.66;4918728;29;20204;-44
2023/10/07 04:17:11;;;;;;;16.90;3.08;;;;;;;13.78;100.00;101158.78;4920766;29;20612;-44
2023/10/07 04:19:53;;;;;;;19.25;3.05;;;;;;;13.72;100.00;101159.94;4918917;29;20516;-47
2023/10/07 04:22:18;;;;;;;26.50;3.35;;;;;;;13.74;100.00;101165.25;4919237;29;20270;-47
2023/10/07 04:24:44;;;;;;;19.75;3.00;;;;;;;13.72;100.00;101161.75;4917721;29;20263;-47
2023/10/07 04:27:18;;;;;;;16.40;3.03;;;;;;;13.67;100.00;101153.03;4920386;29;20176;-44
2023/10/07 04:29:44;;;;;;;14.45;3.20;;;;;;;13.66;100.00;101151.25;4913895;29;20239;-45
2023/10/07 04:32:20;;;;;;;21.58;3.00;;;;;;;13.57;100.00;101158.81;4921873;29;20192;-46
2023/10/07 04:35:16;;;;;;;15.65;2.55;;;;;;;13.65;100.00;101154.91;4914995;29;20668;-45
2023/10/07 04:37:47;;;;;;;22.85;3.92;;;;;;;13.58;100.00;101159.69;4918265;29;20214;-46
2023/10/07 04:45:37;;;;;;;14.63;2.22;;;;;;;13.56;100.00;101167.84;4917032;29;20505;-44
2023/10/07 04:48:40;;;;;;;18.02;3.17;;;;;;;13.43;100.00;101163.94;4919248;29;20186;-46
2023/10/07 04:51:12;;;;;;;18.35;2.67;;;;;;;13.35;100.00;101153.50;4920060;29;20202;-45
2023/10/07 04:53:39;;;;;;;19.83;2.60;;;;;;;13.31;100.00;101153.72;4914755;29;20215;-45
2023/10/07 04:56:10;;;;;;;30.83;4.85;;;;;;;13.30;100.00;101152.84;4917086;29;20291;-47
2023/10/07 04:58:39;;;;;;;16.63;2.85;;;;;;;13.31;100.00;101154.59;4914233;29;20259;-47
2023/10/07 05:01:22;;;;;;;16.42;3.05;;;;;;;13.32;100.00;101153.66;4918638;29;20240;-45
2023/10/07 05:03:55;;;;;;;17.60;2.92;;;;;;;13.31;100.00;101149.22;4916400;29;20548;-46
2023/10/07 05:06:21;;;;;;;14.63;3.25;;;;;;;13.30;100.00;101150.16;4918967;29;20219;-46
2023/10/07 05:08:47;;;;;;;12.85;2.45;;;;;;;13.25;100.00;101164.72;4918759;29;20179;-45
2023/10/07 05:11:17;;;;;;;16.38;2.78;;;;;;;13.25;100.00;101165.63;4918026;29;20207;-46
2023/10/07 05:13:47;;;;;;;15.90;2.70;;;;;;;13.24;100.00;101155.78;4919322;29;20216;-45
2023/10/07 05:16:13;;;;;;;19.52;2.50;;;;;;;13.23;100.00;101162.13;4917048;29;20200;-45
2023/10/07 05:18:39;;;;;;;14.23;2.17;;;;;;;13.31;100.00;101165.34;4917583;29;20240;-47
2023/10/07 05:21:05;;;;;;;14.27;2.70;;;;;;;13.28;100.00;101153.84;4919982;29;20179;-45
2023/10/07 05:23:31;;;;;;;14.00;2.05;;;;;;;13.25;100.00;101159.34;4922321;29;20267;-43
2023/10/07 05:26:03;;;;;;;12.55;2.50;;;;;;;13.22;100.00;101157.66;4924561;29;20247;-46
2023/10/07 05:28:31;;;;;;;18.45;2.58;;;;;;;13.28;100.00;101152.03;4921115;29;20187;-45
2023/10/07 05:30:57;;;;;;;13.88;2.58;;;;;;;13.16;100.00;101155.22;4916961;29;20217;-44
2023/10/07 05:33:25;;;;;;;15.48;2.28;;;;;;;13.13;100.00;101140.09;4917056;29;20286;-45
2023/10/07 05:36:14;;;;;;;22.23;3.35;;;;;;;13.16;100.00;101128.31;4919795;29;20203;-45
2023/10/07 05:38:44;;;;;;;12.30;2.63;;;;;;;13.19;100.00;101137.16;4918673;29;20191;-47
2023/10/07 05:41:17;;;;;;;16.50;3.10;;;;;;;13.13;100.00;101123.97;4913751;29;20231;-45
2023/10/07 05:43:48;;;;;;;24.17;2.55;;;;;;;13.10;100.00;101121.41;4918012;29;20225;-45
2023/10/07 05:46:17;;;;;;;15.07;2.40;;;;;;;13.13;100.00;101132.03;4916454;29;20188;-46
2023/10/07 05:48:43;;;;;;;11.90;3.15;;;;;;;13.20;100.00;101135.31;4915272;29;20176;-45
2023/10/07 05:51:09;;;;;;;18.27;2.55;;;;;;;13.19;100.00;101144.34;4916245;29;20200;-46
2023/10/07 05:53:38;;;;;;;20.17;2.85;;;;;;;13.17;100.00;101148.94;4915682;29;20264;-46
2023/10/07 05:56:07;;;;;;;12.05;2.85;;;;;;;13.17;100.00;101149.78;4917665;29;20223;-46
2023/10/07 05:58:35;;;;;;;19.00;2.40;;;;;;;13.17;100.00;101152.47;4919385;29;20187;-46
2023/10/07 06:01:01;;;;;;;14.40;2.22;;;;;;;13.21;100.00;101164.00;4914313;29;20396;-47
2023/10/07 06:03:28;;;;;;;17.08;2.45;;;;;;;13.16;100.00;101164.22;4913040;29;20230;-47
2023/10/07 06:05:57;;;;;;;25.00;2.72;;;;;;;13.09;100.00;101173.47;4915367;29;20559;-47
2023/10/07 06:08:26;;;;;;;10.57;2.08;;;;;;;13.03;100.00;101173.75;4911892;29;20202;-45
2023/10/07 06:10:54;;;;;;;20.75;2.50;;;;;;;12.92;100.00;101174.22;4917653;29;20208;-46
2023/10/07 06:13:20;;;;;;;20.17;2.33;;;;;;;12.95;100.00;101186.66;4920915;29;20765;-45
2023/10/07 06:15:45;;;;;;;20.23;3.25;;;;;;;12.95;100.00;101190.19;4916098;29;20329;-45
2023/10/07 06:18:11;;;;;;;20.67;2.38;;;;;;;12.84;100.00;101194.28;4914632;29;20212;-48
2023/10/07 06:21:11;;;;;;;14.13;2.17;;;;;;;12.80;100.00;101206.97;4915122;29;20230;-45
2023/10/07 06:23:25;;;;;;;14.60;2.55;;;;;;;12.90;100.00;101204.75;4913362;29;20246;-44
2023/10/07 06:25:52;;;;;;;13.73;2.53;;;;;;;12.74;100.00;101213.47;4915490;29;20266;-45
2023/10/07 06:31:22;;;;;;;13.25;2.78;;;;;;;12.87;100.00;101215.66;4918124;29;20208;-45
2023/10/07 06:34:12;;;;;;;15.43;2.47;;;;;;;12.83;100.00;101220.28;4917717;29;20208;-45
2023/10/07 06:36:40;;;;;;;22.40;2.92;;;;;;;12.77;100.00;101248.31;4915122;29;20198;-47
2023/10/07 06:39:07;;;;;;;10.57;1.90;;;;;;;12.79;100.00;101240.19;4918313;29;20209;-44
2023/10/07 06:41:34;;;;;;;11.35;2.38;;;;;;;12.80;100.00;101233.00;4919068;29;20203;-45
2023/10/07 06:44:02;;;;;;;15.15;2.75;;;;;;;12.84;100.00;101242.69;4916474;29;20192;-45
2023/10/07 06:46:40;;;;;;;16.33;2.80;;;;;;;12.77;100.00;101247.44;4916253;29;20192;-45
2023/10/07 06:49:19;;;;;;;14.02;2.58;;;;;;;12.78;100.00;101239.31;4916782;29;20545;-46
2023/10/07 06:51:51;;;;;;;18.15;2.67;;;;;;;12.75;100.00;101252.88;4917740;29;20356;-46
2023/10/07 06:54:16;;;;;;;16.50;2.33;;;;;;;12.68;100.00;101247.81;4920304;29;20196;-44
2023/10/07 06:56:42;;;;;;;15.40;2.63;;;;;;;12.71;100.00;101253.94;4916297;29;20533;-46
2023/10/07 06:59:10;;;;;;;15.10;2.58;;;;;;;12.76;100.00;101253.75;4914331;29;20188;-45
2023/10/07 07:04:11;;;;;;;13.43;2.05;;;;;;;12.69;100.00;101277.31;4918930;29;20199;-44
2023/10/07 07:06:44;;;;;;;12.23;2.20;;;;;;;12.70;100.00;101287.16;4917552;29;20191;-45
2023/10/07 07:12:08;;;;;;;23.73;3.08;;;;;;;12.71;100.00;101282.66;4919948;29;20654;-44
2023/10/07 07:14:34;;;;;;;14.32;2.60;;;;;;;12.67;100.00;101289.06;4917072;29;20196;-45
2023/10/07 07:20:18;;;;;;;14.85;2.40;;;;;;;12.63;100.00;101296.38;4919518;29;20183;-45
2023/10/07 07:22:47;;;;;;;17.08;3.05;;;;;;;12.62;100.00;101300.00;4921516;29;20258;-46
2023/10/07 07:27:45;;;;;;;21.20;2.83;;;;;;;12.63;100.00;101298.19;4916242;29;20192;-46
2023/10/07 07:30:19;;;;;;;14.43;2.75;;;;;;;12.64;100.00;101294.56;4919439;29;20563;-46
2023/10/07 07:32:55;;;;;;;10.27;2.00;;;;;;;12.69;100.00;101303.34;4918998;29;20216;-46
2023/10/07 07:35:38;;;;;;;18.23;3.15;;;;;;;12.58;100.00;101298.38;4922133;29;20202;-46
2023/10/07 07:38:11;;;;;;;12.13;2.15;;;;;;;12.60;100.00;101307.25;4920436;29;20188;-46
2023/10/07 07:40:40;;;;;;;18.33;2.70;;;;;;;12.55;100.00;101302.06;4933284;29;20180;-45
2023/10/07 07:43:07;;;;;;;13.80;2.75;;;;;;;12.59;100.00;101302.81;4922538;29;20195;-46
2023/10/07 07:45:35;;;;;;;17.13;2.70;;;;;;;12.55;100.00;101311.91;4919471;29;20180;-44
2023/10/07 07:48:06;;;;;;;12.93;2.17;;;;;;;12.57;100.00;101315.44;4924360;29;20196;-46
2023/10/07 07:50:35;;;;;;;18.40;2.50;;;;;;;12.58;100.00;101320.75;4920801;29;20250;-46
2023/10/07 07:53:06;;;;;;;16.73;2.30;;;;;;;12.58;100.00;101327.94;4920504;29;20278;-45
2023/10/07 07:55:37;;;;;;;11.40;2.10;;;;;;;12.67;100.00;101327.59;4918187;29;20191;-46
2023/10/07 07:58:09;;;;;;;14.93;2.20;;;;;;;12.64;100.00;101326.81;4926169;29;20196;-45
2023/10/07 08:00:40;;;;;;;12.60;2.55;;;;;;;12.62;100.00;101326.91;4918643;29;20599;-44
2023/10/07 08:03:07;;;;;;;13.02;2.33;;;;;;;12.76;100.00;101329.03;4919250;29;20225;-46
2023/10/07 08:05:35;;;;;;;13.50;1.95;;;;;;;12.66;100.00;101320.47;4924403;29;20176;-45
2023/10/07 08:08:09;;;;;;;8.20;1.90;;;;;;;12.61;100.00;101319.75;4915963;29;20268;-44
2023/10/07 08:10:35;;;;;;;9.75;1.90;;;;;;;12.54;100.00;101318.25;4916506;29;20246;-45
2023/10/07 08:13:01;;;;;;;8.43;1.42;;;;;;;12.61;100.00;101317.06;4914650;29;20222;-43
2023/10/07 08:15:38;;;;;;;8.73;1.65;;;;;;;12.58;100.00;101317.19;4920022;29;20662;-43
2023/10/07 08:18:06;;;;;;;8.52;2.08;;;;;;;12.62;100.00;101317.97;4917965;29;20280;-44
2023/10/07 08:20:37;;;;;;;9.63;2.25;;;;;;;12.54;100.00;101323.63;4916061;29;20179;-43
2023/10/07 08:23:07;;;;;;;12.65;1.65;;;;;;;12.68;100.00;101328.44;4921387;29;20204;-43
2023/10/07 08:25:46;;;;;;;6.40;1.75;;;;;;;12.65;100.00;101331.28;4915754;29;20564;-45
2023/10/07 08:28:59;;;;;;;9.77;1.13;;;;;;;12.68;100.00;101323.97;4922851;29;20195;-46
2023/10/07 08:31:08;;;;;;;6.05;1.55;;;;;;;12.55;100.00;101326.25;4916535;29;20246;-45
2023/10/07 08:33:33;;;;;;;7.70;1.52;;;;;;;12.67;100.00;101330.28;4916843;29;20275;-46
2023/10/07 08:35:59;;;;;;;8.68;1.60;;;;;;;12.69;100.00;101320.34;4919273;29;20179;-45
2023/10/07 08:38:37;;;;;;;6.30;1.45;;;;;;;12.75;100.00;101321.91;4919748;29;20195;-44
2023/10/07 08:41:04;;;;;;;9.35;1.80;;;;;;;12.78;100.00;101321.78;4922482;29;20179;-46
2023/10/07 08:43:43;;;;;;;4.90;1.10;;;;;;;12.78;100.00;101316.41;4920689;29;20235;-45
2023/10/07 08:46:12;;;;;;;5.30;0.90;;;;;;;12.83;100.00;101300.94;4922113;29;20198;-45
2023/10/07 08:48:42;;;;;;;6.32;1.60;;;;;;;12.87;100.00;101307.97;4921580;29;20251;-45
2023/10/07 08:51:14;;;;;;;10.13;1.60;;;;;;;12.80;100.00;101297.53;4918954;29;20203;-45
2023/10/07 08:53:41;;;;;;;8.27;1.65;;;;;;;12.82;100.00;101304.59;4915677;29;20247;-47
2023/10/07 08:56:11;;;;;;;12.05;1.95;;;;;;;12.89;100.00;101306.09;4918121;29;20176;-47
2023/10/07 08:58:41;;;;;;;7.93;1.48;;;;;;;12.89;100.00;101308.78;4918533;29;20634;-46
2023/10/07 09:01:17;;;;;;;8.48;1.40;;;;;;;12.71;100.00;101296.97;4920638;29;20267;-44
2023/10/07 09:03:49;;;;;;;12.10;1.83;;;;;;;12.80;100.00;101301.09;4914852;29;20272;-45
2023/10/07 09:06:16;;;;;;;9.82;1.80;;;;;;;12.85;100.00;101298.22;4916023;29;20184;-46
2023/10/07 09:08:46;;;;;;;6.00;1.65;;;;;;;12.81;100.00;101304.66;4917017;29;20195;-47
2023/10/07 09:11:18;;;;;;;10.98;1.40;;;;;;;12.93;100.00;101285.34;4917714;29;20200;-46
2023/10/07 09:13:45;;;;;;;10.30;2.15;;;;;;;12.92;100.00;101299.72;4915875;29;20252;-45
2023/10/07 09:16:12;;;;;;;11.10;1.83;;;;;;;12.70;100.00;101288.94;4917218;29;20714;-45
2023/10/07 09:18:44;;;;;;;11.35;1.88;;;;;;;12.86;100.00;101292.78;4918039;29;20206;-45
2023/10/07 09:21:22;;;;;;;9.90;1.80;;;;;;;12.96;100.00;101299.53;4919664;29;20180;-44
2023/10/07 09:23:59;;;;;;;5.80;2.15;;;;;;;12.93;100.00;101288.03;4918162;29;20532;-46
2023/10/07 09:26:36;;;;;;;8.20;2.20;;;;;;;13.07;100.00;101288.31;4920004;29;20648;-45
2023/10/07 09:29:15;;;;;;;6.07;1.25;;;;;;;13.01;100.00;101275.16;4919427;29;20187;-46
2023/10/07 09:31:45;;;;;;;9.18;1.88;;;;;;;13.10;100.00;101287.34;4915052;29;20187;-45
2023/10/07 09:34:24;;;;;;;8.02;2.72;;;;;;;12.91;100.00;101306.91;4917908;29;20578;-43
2023/10/07 09:36:56;;;;;;;7.85;1.73;;;;;;;12.99;100.00;101309.31;4920005;29;20192;-46
2023/10/07 09:39:34;;;;;;;10.68;1.75;;;;;;;12.90;100.00;101305.19;4915255;29;20195;-43
2023/10/07 09:42:05;;;;;;;7.47;1.42;;;;;;;12.70;100.00;101311.34;4915635;29;20186;-45
2023/10/07 09:44:31;;;;;;;8.23;1.75;;;;;;;12.73;100.00;101308.53;4915504;29;20215;-43
2023/10/07 09:47:03;;;;;;;16.60;2.70;;;;;;;12.80;100.00;101310.97;4912844;29;20198;-45
2023/10/07 09:49:30;;;;;;;12.77;1.73;;;;;;;12.81;100.00;101305.53;4914484;29;20192;-43
2023/10/07 09:52:15;;;;;;;8.48;2.03;;;;;;;12.86;100.00;101310.75;4916645;29;20200;-45
2023/10/07 09:55:06;;;;;;;13.05;2.40;;;;;;;12.88;100.00;101314.22;4918118;29;20240;-46
2023/10/07 09:57:43;;;;;;;11.63;2.25;;;;;;;12.94;100.00;101314.88;4912164;29;20641;-45
2023/10/07 10:03:30;;;;;;;11.77;2.10;;;;;;;12.93;100.00;101307.72;4919047;29;20590;-44
2023/10/07 10:06:25;;;;;;;9.60;2.15;;;;;;;12.94;100.00;101313.97;4914421;29;20192;-45
2023/10/07 10:08:57;;;;;;;7.65;1.35;;;;;;;12.99;100.00;101320.94;4912238;29;20218;-46
2023/10/07 10:11:30;;;;;;;6.88;1.60;;;;;;;13.10;100.00;101316.94;4905904;29;20702;-45
2023/10/07 10:16:53;;;;;;;8.25;1.77;;;;;;;12.94;100.00;101325.63;4916120;29;20195;-43
2023/10/07 10:19:28;;;;;;;13.77;2.00;;;;;;;12.92;100.00;101326.59;4915553;29;20307;-45
2023/10/07 10:21:53;;;;;;;8.32;1.77;;;;;;;12.96;100.00;101344.38;4912982;29;20220;-45
2023/10/07 10:24:25;;;;;;;6.90;1.67;;;;;;;13.03;100.00;101342.31;4914511;29;20211;-44
2023/10/07 10:27:01;;;;;;;13.25;2.42;;;;;;;12.95;100.00;101339.94;4914496;29;20203;-44
2023/10/07 10:29:31;;;;;;;7.13;1.88;;;;;;;12.96;100.00;101347.94;4916275;29;20195;-43
2023/10/07 10:32:02;;;;;;;11.02;2.03;;;;;;;12.84;100.00;101351.13;4913669;29;20659;-43
2023/10/07 10:34:29;;;;;;;12.25;2.17;;;;;;;12.85;100.00;101349.31;4912215;29;20596;-45
2023/10/07 10:36:56;;;;;;;10.75;1.73;;;;;;;12.88;100.00;101346.50;4923037;29;20721;-44
2023/10/07 10:39:25;;;;;;;10.77;1.95;;;;;;;12.94;100.00;101357.91;4917219;29;20188;-44
2023/10/07 10:41:54;;;;;;;10.82;2.33;;;;;;;12.86;100.00;101360.00;4916364;29;20214;-43
2023/10/07 10:44:20;;;;;;;13.13;2.63;;;;;;;12.91;100.00;101359.84;4923983;29;20210;-43
2023/10/07 10:46:48;;;;;;;9.48;1.85;;;;;;;12.97;100.00;101352.41;4922386;29;20198;-44
2023/10/07 10:49:17;;;;;;;15.93;2.45;;;;;;;12.85;100.00;101373.50;4917691;29;20663;-43
2023/10/07 10:51:45;;;;;;;11.35;2.33;;;;;;;12.69;100.00;101366.03;4918401;29;20219;-42
2023/10/07 10:54:19;;;;;;;11.77;2.17;;;;;;;12.64;100.00;101361.75;4918954;29;20211;-46
2023/10/07 10:56:58;;;;;;;15.65;2.58;;;;;;;12.78;100.00;101359.44;4914982;29;20287;-44
2023/10/07 10:59:47;;;;;;;17.20;3.47;;;;;;;12.61;100.00;101367.28;4919325;29;20484;-43
2023/10/07 11:02:17;;;;;;;12.60;2.50;;;;;;;12.74;100.00;101372.09;4922190;29;20250;-44
2023/10/07 11:04:49;;;;;;;10.10;2.35;;;;;;;12.82;100.00;101373.66;4921227;29;20188;-45
2023/10/07 11:07:15;;;;;;;13.10;2.88;;;;;;;12.75;100.00;101379.25;4919924;29;20192;-44
2023/10/07 11:09:48;;;;;;;11.13;1.98;;;;;;;12.80;100.00;101386.28;4919808;29;20226;-46
2023/10/07 11:12:16;;;;;;;11.65;2.00;;;;;;;12.75;100.00;101390.00;4920210;29;20195;-44
2023/10/07 11:14:43;;;;;;;12.90;2.70;;;;;;;12.60;100.00;101395.97;4919277;29;20195;-45
2023/10/07 11:17:10;;;;;;;15.90;2.65;;;;;;;12.57;100.00;101391.59;4920499;29;20252;-45
2023/10/07 11:19:43;;;;;;;12.32;2.63;;;;;;;12.49;100.00;101388.31;4920219;29;20238;-43
2023/10/07 11:22:19;;;;;;;11.77;2.33;;;;;;;12.34;100.00;101387.06;4923035;29;20718;-43
2023/10/07 11:24:46;;;;;;;16.13;2.25;;;;;;;12.34;100.00;101389.75;4916958;29;20180;-44
2023/10/07 11:27:13;;;;;;;13.90;3.55;;;;;;;12.27;100.00;101390.91;4922763;29;20204;-43
2023/10/07 11:29:39;;;;;;;9.90;2.13;;;;;;;12.19;100.00;101384.06;4918636;29;20574;-45
2023/10/07 11:32:07;;;;;;;11.77;2.10;;;;;;;12.16;100.00;101398.47;4917727;29;20196;-44
2023/10/07 11:34:37;;;;;;;9.65;1.83;;;;;;;12.12;100.00;101402.19;4919230;29;20214;-44
2023/10/07 11:37:14;;;;;;;9.77;2.03;;;;;;;12.06;100.00;101403.28;4916303;29;20569;-43
2023/10/07 11:39:44;;;;;;;13.82;2.35;;;;;;;11.91;100.00;101399.31;4916154;29;20203;-44
2023/10/07 11:42:11;;;;;;;13.40;2.70;;;;;;;11.92;100.00;101387.66;4921280;29;20309;-44
2023/10/07 11:44:39;;;;;;;15.45;2.22;;;;;;;11.99;100.00;101391.00;4919701;29;20262;-44
2023/10/07 11:47:08;;;;;;;8.82;1.88;;;;;;;12.04;100.00;101396.22;4919632;29;20195;-41
2023/10/07 11:49:36;;;;;;;14.45;2.45;;;;;;;12.02;100.00;101396.25;4918293;29;20210;-41
2023/10/07 11:52:05;;;;;;;11.48;2.75;;;;;;;12.13;100.00;101393.19;4924270;29;20434;-42
2023/10/07 11:54:34;;;;;;;13.93;2.25;;;;;;;12.11;100.00;101392.38;4913542;29;20208;-41
2023/10/07 11:57:02;;;;;;;14.07;2.67;;;;;;;12.23;100.00;101401.81;4918658;29;20192;-41
2023/10/07 11:59:28;;;;;;;15.98;2.45;;;;;;;12.14;100.00;101400.34;4920591;29;20741;-42
2023/10/07 12:01:54;;;;;;;14.23;2.40;;;;;;;12.14;100.00;101403.03;4917310;29;20191;-41
2023/10/07 12:04:21;;;;;;;14.40;1.90;;;;;;;12.21;100.00;101409.06;4918117;29;20216;-42
2023/10/07 12:06:50;;;;;;;13.73;2.80;;;;;;;12.05;100.00;101409.59;4919437;29;20211;-42
2023/10/07 12:09:20;;;;;;;18.15;2.10;;;;;;;11.81;100.00;101392.50;4920864;29;20274;-40
2023/10/07 12:11:45;;;;;;;13.55;2.20;;;;;;;11.94;100.00;101395.69;4916282;29;20231;-42
2023/10/07 12:14:13;;;;;;;17.85;2.80;;;;;;;11.72;100.00;101391.00;4915800;29;20292;-41
2023/10/07 12:16:38;;;;;;;20.70;3.95;;;;;;;11.62;100.00;101396.72;4920747;29;20211;-41
2023/10/07 12:19:04;;;;;;;15.98;3.00;;;;;;;11.68;100.00;101393.84;4921319;29;20186;-41
2023/10/07 12:21:30;;;;;;;17.55;2.72;;;;;;;11.65;100.00;101402.84;4915786;29;20243;-40
2023/10/07 12:23:56;;;;;;;16.52;2.47;;;;;;;11.80;100.00;101403.28;4915294;29;20203;-41
2023/10/07 12:26:22;;;;;;;15.85;2.75;;;;;;;11.94;100.00;101401.91;4919605;29;20211;-43